Time;durP1;ratioP1;P1;durP2;ratioP2;P2;SDS_P1;SDS_P2;PMS_P1;PMS_P2;Temp;Humidity;BMP_temperature;BMP_pressure;BME280_temperature;BME280_humidity;BME280_pressure;Samples;Min_cycle;Max_cycle;Signal;HPM_P1;HPM_P2
2021/10/24 00:01:32;;;;;;;;;;;;;;;14.99;72.56;101669.91;1884842;76;20264;-65
2021/10/24 00:04:01;;;;;;;;;;;;;;;15.00;72.50;101668.53;1884853;76;20119;-65
2021/10/24 00:06:29;;;;;;;;;;;;;;;15.04;72.62;101677.22;1884757;76;20112;-66
2021/10/24 00:08:57;;;;;;;;;;;;;;;15.05;72.65;101672.33;1884859;76;20119;-65
2021/10/24 00:11:24;;;;;;;;;;;;;;;15.06;72.56;101669.58;1884766;76;20115;-66
2021/10/24 00:13:52;;;;;;;;;;;;;;;15.11;72.46;101671.20;1884825;76;20174;-66
2021/10/24 00:16:20;;;;;;;;;;;;;;;15.15;72.35;101672.78;1884859;76;20115;-66
2021/10/24 00:18:48;;;;;;;;;;;;;;;15.19;72.23;101671.71;1884840;76;20111;-66
2021/10/24 00:21:16;;;;;;;;;;;;;;;15.22;72.22;101676.42;1884808;76;20114;-67
2021/10/24 00:23:44;;;;;;;;;;;;;;;15.26;72.12;101678.48;1884865;76;20126;-66
2021/10/24 00:26:11;;;;;;;;;;;;;;;15.28;72.03;101675.29;1884948;76;20111;-66
2021/10/24 00:28:39;;;;;;;;;;;;;;;15.30;72.00;101682.71;1884951;76;20118;-66
2021/10/24 00:31:07;;;;;;;;;;;;;;;15.32;71.92;101687.48;1884910;76;20115;-66
2021/10/24 00:33:35;;;;;;;;;;;;;;;15.33;71.88;101690.55;1884792;76;20159;-67
2021/10/24 00:36:03;;;;;;;;;;;;;;;15.34;71.89;101699.36;1884943;76;20224;-66
2021/10/24 00:38:31;;;;;;;;;;;;;;;15.29;72.12;101703.56;1884934;76;20122;-66
2021/10/24 00:40:58;;;;;;;;;;;;;;;15.18;72.24;101702.69;1884905;76;20106;-65
2021/10/24 00:43:26;;;;;;;;;;;;;;;15.10;72.39;101703.47;1884926;76;20150;-66
2021/10/24 00:45:54;;;;;;;;;;;;;;;15.01;72.34;101714.03;1884938;76;20185;-66
2021/10/24 00:48:22;;;;;;;;;;;;;;;14.85;72.30;101711.14;1884845;76;20146;-66
2021/10/24 00:50:50;;;;;;;;;;;;;;;14.73;72.31;101725.36;1884915;76;20142;-64
2021/10/24 00:53:18;;;;;;;;;;;;;;;14.60;72.37;101732.47;1884893;76;20149;-64
2021/10/24 00:55:45;;;;;;;;;;;;;;;14.49;72.46;101734.66;1884848;76;20119;-64
2021/10/24 00:58:15;;;;;;;;;;;;;;;14.38;72.54;101726.27;1884923;76;20119;-64
2021/10/24 01:00:43;;;;;;;;;;;;;;;14.33;72.53;101736.18;1884712;76;20212;-66
2021/10/24 01:03:12;;;;;;;;;;;;;;;14.31;72.43;101738.03;1884867;76;20115;-64
2021/10/24 01:05:41;;;;;;;;;;;;;;;14.27;72.33;101742.14;1885123;76;20127;-64
2021/10/24 01:08:09;;;;;;;;;;;;;;;14.20;72.36;101749.03;1884879;76;20119;-65
2021/10/24 01:10:38;;;;;;;;;;;;;;;14.14;72.33;101755.43;1884907;76;20118;-64
2021/10/24 01:13:05;;;;;;;;;;;;;;;14.11;72.23;101764.84;1884858;76;20146;-65
2021/10/24 01:15:34;;;;;;;;;;;;;;;14.10;72.14;101767.06;1884950;76;20224;-65
2021/10/24 01:18:02;;;;;;;;;;;;;;;14.06;72.07;101769.44;1885082;76;20150;-65
2021/10/24 01:20:30;;;;;;;;;;;;;;;13.99;72.03;101767.46;1884915;76;20110;-64
2021/10/24 01:22:58;;;;;;;;;;;;;;;13.92;72.03;101778.34;1884922;76;20115;-65
2021/10/24 01:25:26;;;;;;;;;;;;;;;13.85;72.02;101785.19;1891831;76;20158;-64
2021/10/24 01:27:54;;;;;;;;;;;;;;;13.79;72.06;101786.72;1884883;76;20107;-64
2021/10/24 01:30:22;;;;;;;;;;;;;;;13.70;72.13;101793.66;1884880;76;20143;-64
2021/10/24 01:32:51;;;;;;;;;;;;;;;13.62;72.18;101794.41;1884988;76;20115;-64
2021/10/24 01:35:20;;;;;;;;;;;;;;;13.51;72.29;101795.63;1884946;76;20139;-64
2021/10/24 01:37:48;;;;;;;;;;;;;;;13.40;72.59;101800.42;1885061;76;20131;-64
2021/10/24 01:40:17;;;;;;;;;;;;;;;13.40;72.44;101797.78;1884857;76;20103;-64
2021/10/24 01:42:46;;;;;;;;;;;;;;;13.40;72.32;101794.28;1884879;76;20522;-65
2021/10/24 01:45:14;;;;;;;;;;;;;;;13.36;72.25;101794.84;1884915;76;20404;-64
2021/10/24 01:47:42;;;;;;;;;;;;;;;13.33;72.31;101800.22;1884948;76;20122;-65
2021/10/24 01:50:10;;;;;;;;;;;;;;;13.29;72.38;101801.21;1884998;76;20146;-65
2021/10/24 01:52:42;;;;;;;;;;;;;;;13.27;72.43;101807.02;1884911;76;20119;-65
2021/10/24 01:55:12;;;;;;;;;;;;;;;13.21;72.53;101815.16;1884837;76;20194;-65
2021/10/24 01:57:41;;;;;;;;;;;;;;;13.16;72.61;101809.16;1884811;76;20173;-65
2021/10/24 02:02:59;;;;;;;;;;;;;;;13.10;72.76;101808.44;1914340;75;20436;-63
2021/10/24 02:05:34;;;;;;;;;;;;;;;13.11;72.65;101797.39;1913136;75;20249;-65
2021/10/24 02:08:02;;;;;;;;;;;;;;;13.09;72.69;101804.05;1914313;75;20216;-65
2021/10/24 02:10:31;;;;;;;;;;;;;;;13.09;72.67;101796.11;1914371;75;20130;-65
2021/10/24 02:13:00;;;;;;;;;;;;;;;13.13;72.43;101799.09;1914412;75;20150;-65
2021/10/24 02:15:30;;;;;;;;;;;;;;;13.13;72.34;101794.23;1912762;75;20134;-65
2021/10/24 02:17:58;;;;;;;;;;;;;;;13.15;72.27;101792.43;1914029;75;20166;-64
2021/10/24 02:20:27;;;;;;;;;;;;;;;13.18;72.10;101788.81;1914136;75;20133;-65
2021/10/24 02:22:57;;;;;;;;;;;;;;;13.19;72.03;101790.55;1913931;75;20159;-64
2021/10/24 02:25:25;;;;;;;;;;;;;;;13.19;72.02;101790.55;1914361;75;20182;-65
2021/10/24 02:27:53;;;;;;;;;;;;;;;13.18;71.99;101783.52;1914165;75;20166;-65
2021/10/24 02:30:21;;;;;;;;;;;;;;;13.16;71.91;101785.36;1913950;75;20135;-65
2021/10/24 02:32:49;;;;;;;;;;;;;;;13.12;71.91;101790.73;1913887;75;20135;-64
2021/10/24 02:35:25;;;;;;;;;;;;;;;13.10;71.89;101792.56;1910784;75;20130;-64
2021/10/24 02:37:55;;;;;;;;;;;;;;;13.05;72.06;101794.49;1913931;75;20416;-64
2021/10/24 02:40:24;;;;;;;;;;;;;;;13.06;72.14;101792.73;1914172;75;20127;-66
2021/10/24 02:42:53;;;;;;;;;;;;;;;13.03;72.56;101791.03;1914090;75;20189;-67
2021/10/24 02:45:25;;;;;;;;;;;;;;;13.00;72.26;101792.45;1913535;75;20424;-66
2021/10/24 02:47:54;;;;;;;;;;;;;;;12.97;72.38;101790.39;1914370;75;20229;-66
2021/10/24 02:50:22;;;;;;;;;;;;;;;12.93;72.33;101785.19;1914275;75;20236;-66
2021/10/24 02:52:50;;;;;;;;;;;;;;;12.94;72.24;101786.90;1914295;75;20134;-66
2021/10/24 02:55:18;;;;;;;;;;;;;;;12.97;72.14;101788.60;1914232;75;20617;-66
2021/10/24 02:57:46;;;;;;;;;;;;;;;12.97;72.06;101787.28;1914301;75;20146;-65
2021/10/24 03:00:14;;;;;;;;;;;;;;;12.98;71.96;101787.67;1914251;75;20135;-65
2021/10/24 03:02:44;;;;;;;;;;;;;;;13.01;71.89;101784.08;1883212;75;20218;-65
2021/10/24 03:05:12;;;;;;;;;;;;;;;13.00;71.84;101783.19;1871181;77;20179;-65
2021/10/24 03:07:41;;;;;;;;;;;;;;;12.93;72.05;101786.98;1871202;77;20163;-65
2021/10/24 03:10:10;;;;;;;;;;;;;;;12.88;72.19;101786.25;1849586;77;20137;-65
2021/10/24 03:12:38;;;;;;;;;;;;;;;12.75;72.82;101782.67;1871176;76;20199;-65
2021/10/24 03:15:06;;;;;;;;;;;;;;;12.66;72.84;101775.03;1871242;77;20140;-65
2021/10/24 03:17:35;;;;;;;;;;;;;;;12.64;72.86;101772.04;1871304;77;20140;-65
2021/10/24 03:20:03;;;;;;;;;;;;;;;12.62;72.88;101769.44;1871195;77;20258;-65
2021/10/24 03:22:31;;;;;;;;;;;;;;;12.64;72.78;101764.97;1871160;76;20132;-66
2021/10/24 03:25:01;;;;;;;;;;;;;;;12.70;72.65;101763.44;1870998;76;20136;-65
2021/10/24 03:27:29;;;;;;;;;;;;;;;12.68;72.68;101761.78;1871215;77;20169;-64
2021/10/24 03:29:58;;;;;;;;;;;;;;;12.67;72.74;101759.59;1871229;76;20414;-64
2021/10/24 03:32:27;;;;;;;;;;;;;;;12.62;72.96;101758.87;1871192;77;20196;-64
2021/10/24 03:34:55;;;;;;;;;;;;;;;12.59;73.35;101752.81;1871108;77;20219;-65
2021/10/24 03:37:23;;;;;;;;;;;;;;;12.51;73.40;101760.98;1871132;77;20187;-64
2021/10/24 03:39:52;;;;;;;;;;;;;;;12.53;73.31;101757.84;1871326;76;20199;-64
2021/10/24 03:42:19;;;;;;;;;;;;;;;12.55;73.22;101762.61;1871189;77;20144;-64
2021/10/24 03:44:48;;;;;;;;;;;;;;;12.56;73.09;101753.79;1871355;77;20137;-61
2021/10/24 03:47:17;;;;;;;;;;;;;;;12.59;72.98;101756.78;1870721;76;20143;-61
2021/10/24 03:49:45;;;;;;;;;;;;;;;12.59;72.93;101751.03;1871097;76;20175;-63
2021/10/24 03:52:13;;;;;;;;;;;;;;;12.58;72.95;101757.24;1871163;77;20179;-62
2021/10/24 03:54:41;;;;;;;;;;;;;;;12.56;72.96;101763.03;1871309;77;20171;-62
2021/10/24 03:57:09;;;;;;;;;;;;;;;12.54;73.00;101764.83;1871196;77;20144;-61
2021/10/24 03:59:38;;;;;;;;;;;;;;;12.53;73.06;101763.12;1871331;77;20140;-61
2021/10/24 04:02:05;;;;;;;;;;;;;;;12.53;73.06;101759.16;1871143;75;20128;-61
2021/10/24 04:04:34;;;;;;;;;;;;;;;12.51;73.09;101755.23;1871587;77;20261;-61
2021/10/24 04:07:01;;;;;;;;;;;;;;;12.55;72.99;101746.77;1871597;77;20210;-61
2021/10/24 04:09:29;;;;;;;;;;;;;;;12.54;73.05;101746.34;1871512;77;20242;-61
2021/10/24 04:11:57;;;;;;;;;;;;;;;12.55;72.93;101742.80;1871431;77;20144;-62
2021/10/24 04:14:25;;;;;;;;;;;;;;;12.56;72.78;101756.43;1871405;77;20178;-61
2021/10/24 04:16:54;;;;;;;;;;;;;;;12.55;72.68;101765.25;1871492;76;20211;-62
2021/10/24 04:19:25;;;;;;;;;;;;;;;12.52;72.64;101762.70;1871431;76;20133;-61
2021/10/24 04:21:55;;;;;;;;;;;;;;;12.51;72.66;101764.48;1871235;76;20170;-61
2021/10/24 04:24:24;;;;;;;;;;;;;;;12.52;72.65;101779.44;1871486;76;20136;-62
2021/10/24 04:26:52;;;;;;;;;;;;;;;12.48;72.92;101784.84;1871458;77;20140;-61
2021/10/24 04:29:20;;;;;;;;;;;;;;;12.49;72.80;101791.88;1871399;76;20182;-62
2021/10/24 04:31:48;;;;;;;;;;;;;;;12.51;72.79;101792.69;1870986;76;20175;-63
2021/10/24 04:34:16;;;;;;;;;;;;;;;12.50;72.83;101794.44;1871014;77;20223;-64
2021/10/24 04:36:44;;;;;;;;;;;;;;;12.52;72.84;101802.32;1858264;77;20109;-66
2021/10/24 04:39:12;;;;;;;;;;;;;;;12.53;72.75;101805.39;1843031;78;20223;-63
2021/10/24 04:41:41;;;;;;;;;;;;;;;12.54;72.77;101816.34;1856211;77;20163;-64
2021/10/24 04:44:10;;;;;;;;;;;;;;;12.56;72.86;101811.91;1870874;75;20231;-63
2021/10/24 04:46:38;;;;;;;;;;;;;;;12.58;72.86;101809.20;1871361;77;20140;-63
2021/10/24 04:49:06;;;;;;;;;;;;;;;12.57;72.86;101796.45;1869920;77;20175;-64
2021/10/24 04:51:35;;;;;;;;;;;;;;;12.53;72.99;101790.86;1870360;77;20410;-64
2021/10/24 04:54:03;;;;;;;;;;;;;;;12.46;73.17;101793.27;1871317;77;20152;-64
2021/10/24 04:56:32;;;;;;;;;;;;;;;12.42;73.32;101798.25;1871238;77;20547;-64
2021/10/24 04:59:01;;;;;;;;;;;;;;;12.38;73.52;101803.22;1871517;77;20402;-64
2021/10/24 05:01:28;;;;;;;;;;;;;;;12.31;74.39;101798.09;1858245;77;20146;-61
2021/10/24 05:03:56;;;;;;;;;;;;;;;12.28;74.99;101799.53;1846984;76;20168;-62
2021/10/24 05:06:25;;;;;;;;;;;;;;;12.25;74.64;101793.00;1863090;76;20144;-62
2021/10/24 05:08:53;;;;;;;;;;;;;;;12.29;74.45;101798.59;1883582;76;20195;-62
2021/10/24 05:11:21;;;;;;;;;;;;;;;12.34;74.26;101798.02;1871906;76;20169;-62
2021/10/24 05:13:49;;;;;;;;;;;;;;;12.36;74.19;101808.53;1850514;78;20181;-62
2021/10/24 05:16:17;;;;;;;;;;;;;;;12.35;74.19;101812.93;1861605;76;20144;-62
2021/10/24 05:18:45;;;;;;;;;;;;;;;12.30;74.39;101816.19;1883929;76;20128;-62
2021/10/24 05:21:15;;;;;;;;;;;;;;;12.28;74.62;101824.61;1873314;76;20130;-62
2021/10/24 05:23:42;;;;;;;;;;;;;;;12.24;74.58;101826.91;1850537;78;20248;-62
2021/10/24 05:26:11;;;;;;;;;;;;;;;12.18;75.12;101832.84;1859940;76;20174;-62
2021/10/24 05:28:40;;;;;;;;;;;;;;;12.15;75.59;101835.09;1883790;76;20406;-62
2021/10/24 05:31:10;;;;;;;;;;;;;;;12.11;75.87;101830.81;1874715;76;20146;-62
2021/10/24 05:33:39;;;;;;;;;;;;;;;12.13;75.74;101827.20;1850427;77;20408;-62
2021/10/24 05:36:28;;;;;;;;;;;;;;;12.12;75.63;101826.81;1850318;77;20137;-62
2021/10/24 05:38:55;;;;;;;;;;;;;;;12.12;75.54;101832.09;1850543;77;20126;-62
2021/10/24 05:41:25;;;;;;;;;;;;;;;12.11;75.46;101830.81;1850076;78;20137;-63
2021/10/24 05:43:55;;;;;;;;;;;;;;;12.13;75.40;101836.91;1849991;78;20248;-68
2021/10/24 05:46:23;;;;;;;;;;;;;;;12.10;75.51;101837.02;1862137;76;20233;-66
2021/10/24 05:48:51;;;;;;;;;;;;;;;12.08;75.62;101837.05;1883798;76;20223;-66
2021/10/24 05:51:20;;;;;;;;;;;;;;;12.09;75.63;101835.27;1883185;75;20175;-66
2021/10/24 05:53:48;;;;;;;;;;;;;;;12.04;75.70;101839.80;1877453;76;20111;-65
2021/10/24 05:56:18;;;;;;;;;;;;;;;11.97;76.06;101836.02;1860364;76;20125;-66
2021/10/24 05:58:46;;;;;;;;;;;;;;;11.94;76.04;101835.24;1882223;76;20151;-66
2021/10/24 06:01:27;;;;;;;;;;;;;;;11.98;75.91;101830.28;1874654;76;20415;-68
2021/10/24 06:04:13;;;;;;;;;;;;;;;12.00;75.74;101825.83;1875526;76;20498;-66
2021/10/24 06:06:58;;;;;;;;;;;;;;;12.07;75.61;101825.21;1853387;75;20113;-64
2021/10/24 06:09:41;;;;;;;;;;;;;;;12.05;75.83;101825.71;1854907;77;20116;-65
2021/10/24 06:12:02;;;;;;;;;;;;;;;12.00;75.99;101826.29;1884938;75;20142;-65
2021/10/24 06:14:30;;;;;;;;;;;;;;;12.00;76.35;101819.69;1907964;75;20147;-65
2021/10/24 06:16:59;;;;;;;;;;;;;;;11.98;76.94;101827.18;1907902;75;20169;-65
2021/10/24 06:19:27;;;;;;;;;;;;;;;11.98;77.48;101830.28;1907916;75;20180;-69
2021/10/24 06:21:55;;;;;;;;;;;;;;;12.01;77.50;101830.64;1888245;75;20172;-65
2021/10/24 06:24:23;;;;;;;;;;;;;;;12.06;77.39;101832.70;1873905;77;20240;-65
2021/10/24 06:26:51;;;;;;;;;;;;;;;12.08;77.27;101833.09;1863944;75;20116;-65
2021/10/24 06:29:19;;;;;;;;;;;;;;;12.05;77.45;101840.23;1855002;77;20108;-63
2021/10/24 06:31:47;;;;;;;;;;;;;;;12.06;77.36;101834.02;1870777;75;20120;-65
2021/10/24 06:34:22;;;;;;;;;;;;;;;12.09;77.35;101829.99;1869910;76;20120;-67
2021/10/24 06:37:08;;;;;;;;;;;;;;;12.07;77.90;101830.03;1884418;76;20122;-67
2021/10/24 06:39:38;;;;;;;;;;;;;;;11.99;79.38;101822.80;1884128;75;20103;-66
2021/10/24 06:42:06;;;;;;;;;;;;;;;11.96;79.78;101814.48;1899886;75;20161;-66
2021/10/24 06:44:41;;;;;;;;;;;;;;;11.92;81.23;101808.88;1874438;75;20583;-66
2021/10/24 06:47:11;;;;;;;;;;;;;;;11.85;81.40;101811.70;1904150;75;20271;-66
2021/10/24 06:49:52;;;;;;;;;;;;;;;11.80;81.80;101815.77;1907904;75;20180;-66
2021/10/24 06:52:21;;;;;;;;;;;;;;;11.72;81.82;101814.66;1878063;75;20144;-66
2021/10/24 06:54:51;;;;;;;;;;;;;;;11.73;81.76;101816.84;1871795;76;20180;-65
2021/10/24 06:57:48;;;;;;;;;;;;;;;11.74;81.98;101813.31;1903402;75;20261;-66
2021/10/24 07:00:34;;;;;;;;;;;;;;;11.73;82.59;101809.81;1907169;75;20147;-67
2021/10/24 07:03:20;;;;;;;;;;;;;;;11.72;82.82;101807.21;1873886;77;20166;-66
2021/10/24 07:05:56;;;;;;;;;;;;;;;11.71;83.14;101814.70;1835094;78;20260;-66
2021/10/24 07:08:25;;;;;;;;;;;;;;;11.72;82.99;101805.89;1838194;78;20441;-65
2021/10/24 07:10:53;;;;;;;;;;;;;;;11.72;83.55;101809.39;1838432;78;20208;-67
2021/10/24 07:13:21;;;;;;;;;;;;;;;11.73;83.67;101802.33;1838522;78;20143;-66
2021/10/24 07:15:50;;;;;;;;;;;;;;;11.77;83.46;101811.45;1836552;78;20135;-66
2021/10/24 07:18:18;;;;;;;;;;;;;;;11.78;83.54;101814.95;1838351;78;20146;-66
2021/10/24 07:20:46;;;;;;;;;;;;;;;11.77;83.54;101821.16;1838622;78;20142;-66
2021/10/24 07:23:14;;;;;;;;;;;;;;;11.76;83.28;101815.45;1838448;78;20235;-65
2021/10/24 07:26:00;;;;;;;;;;;;;;;11.79;82.98;101817.55;1844231;77;20148;-72
2021/10/24 07:28:28;;;;;;;;;;;;;;;11.87;82.72;101821.30;1870940;77;20426;-64
2021/10/24 07:30:56;;;;;;;;;;;;;;;11.90;82.48;101818.62;1864922;77;20135;-65
2021/10/24 07:33:24;;;;;;;;;;;;;;;11.95;82.15;101820.69;1838309;78;20201;-65
2021/10/24 07:36:00;;;;;;;;;;;;;;;12.00;81.89;101828.93;1857403;77;20130;-65
2021/10/24 07:38:27;;;;;;;;;;;;;;;12.05;81.68;101829.21;1838285;77;20413;-64
2021/10/24 07:40:56;;;;;;;;;;;;;;;12.11;81.52;101838.73;1844136;77;20152;-64
2021/10/24 07:43:25;;;;;;;;;;;;;;;12.14;81.57;101844.80;1870737;76;20222;-65
2021/10/24 07:45:54;;;;;;;;;;;;;;;12.15;81.46;101844.33;1865594;77;20200;-65
2021/10/24 07:48:23;;;;;;;;;;;;;;;12.13;81.36;101844.37;1837843;78;20177;-65
2021/10/24 07:50:51;;;;;;;;;;;;;;;12.18;81.31;101840.76;1843204;77;20144;-65
2021/10/24 07:53:29;;;;;;;;;;;;;;;12.22;81.19;101838.44;1870374;76;20172;-66
2021/10/24 07:56:00;;;;;;;;;;;;;;;12.28;81.00;101840.45;1870733;77;20129;-67
2021/10/24 07:58:33;;;;;;;;;;;;;;;12.30;80.75;101839.95;1868512;76;20410;-64
2021/10/24 08:01:01;;;;;;;;;;;;;;;12.55;80.72;101841.88;1870994;77;20402;-62
2021/10/24 08:03:29;;;;;;;;;;;;;;;12.93;80.30;101835.42;1871130;77;20148;-62
2021/10/24 08:05:58;;;;;;;;;;;;;;;13.10;79.72;101838.84;1874785;75;20130;-62
2021/10/24 08:08:26;;;;;;;;;;;;;;;13.05;79.55;101837.27;1850649;78;20213;-62
2021/10/24 08:10:54;;;;;;;;;;;;;;;12.99;79.46;101828.22;1856099;76;20179;-62
2021/10/24 08:13:23;;;;;;;;;;;;;;;12.92;79.46;101823.56;1883878;75;20139;-61
2021/10/24 08:15:53;;;;;;;;;;;;;;;12.88;79.56;101820.61;1878494;76;20495;-62
2021/10/24 08:18:21;;;;;;;;;;;;;;;12.83;79.57;101818.56;1850595;78;20146;-62
2021/10/24 08:21:08;;;;;;;;;;;;;;;12.69;79.75;101822.52;1859210;76;20143;-61
2021/10/24 08:23:37;;;;;;;;;;;;;;;12.63;79.92;101820.03;1883917;76;20139;-61
2021/10/24 08:26:04;;;;;;;;;;;;;;;12.60;79.96;101820.58;1875838;76;20181;-61
2021/10/24 08:28:33;;;;;;;;;;;;;;;12.58;79.95;101828.58;1850581;77;20169;-63
2021/10/24 08:31:05;;;;;;;;;;;;;;;12.63;79.99;101823.99;1850537;76;20205;-66
2021/10/24 08:33:34;;;;;;;;;;;;;;;12.66;79.95;101823.91;1849108;77;20207;-65
2021/10/24 08:36:03;;;;;;;;;;;;;;;12.74;80.05;101811.78;1867979;74;20109;-65
2021/10/24 08:38:32;;;;;;;;;;;;;;;12.78;79.85;101817.84;1935299;74;20117;-64
2021/10/24 08:41:02;;;;;;;;;;;;;;;12.98;79.65;101815.89;1925062;74;20121;-66
2021/10/24 08:43:34;;;;;;;;;;;;;;;13.04;79.28;101808.64;1884159;76;20166;-64
2021/10/24 08:46:00;;;;;;;;;;;;;;;12.94;79.28;101813.34;1883695;75;20187;-63
2021/10/24 08:48:31;;;;;;;;;;;;;;;12.90;79.31;101822.28;1883967;76;20143;-63
2021/10/24 08:50:57;;;;;;;;;;;;;;;12.85;79.33;101818.06;1877730;75;20130;-64
2021/10/24 08:53:26;;;;;;;;;;;;;;;12.82;79.41;101815.06;1850816;78;20408;-63
2021/10/24 08:55:55;;;;;;;;;;;;;;;12.80;79.40;101809.40;1856171;76;20198;-63
2021/10/24 08:58:23;;;;;;;;;;;;;;;12.75;79.41;101810.41;1883850;76;20143;-64
2021/10/24 09:00:51;;;;;;;;;;;;;;;12.72;79.40;101813.14;1879268;76;20265;-64
2021/10/24 09:03:18;;;;;;;;;;;;;;;12.68;79.40;101819.44;1850773;76;20139;-64
2021/10/24 09:05:47;;;;;;;;;;;;;;;12.63;79.42;101821.81;1854147;76;20134;-64
2021/10/24 09:08:16;;;;;;;;;;;;;;;12.58;79.44;101816.69;1883658;76;20143;-64
2021/10/24 09:10:54;;;;;;;;;;;;;;;12.54;79.46;101815.03;1879198;76;20198;-65
2021/10/24 09:13:23;;;;;;;;;;;;;;;12.51;79.44;101824.38;1850436;77;20146;-64
2021/10/24 09:15:52;;;;;;;;;;;;;;;12.47;79.43;101823.61;1855264;76;20219;-64
2021/10/24 09:18:32;;;;;;;;;;;;;;;12.45;79.42;101825.87;1883640;76;20144;-64
2021/10/24 09:21:19;;;;;;;;;;;;;;;12.43;79.60;101829.91;1883669;76;20127;-65
2021/10/24 09:23:50;;;;;;;;;;;;;;;12.43;79.57;101826.37;1850194;76;20151;-62
2021/10/24 09:26:25;;;;;;;;;;;;;;;12.44;79.72;101828.12;1883622;75;20140;-63
2021/10/24 09:29:00;;;;;;;;;;;;;;;12.43;79.65;101831.66;1883630;76;20416;-62
2021/10/24 09:31:29;;;;;;;;;;;;;;;12.41;79.71;101844.05;1883640;76;20144;-62
2021/10/24 09:33:58;;;;;;;;;;;;;;;12.39;79.72;101845.41;1882928;75;20140;-67
2021/10/24 09:36:26;;;;;;;;;;;;;;;12.39;79.66;101836.63;1868072;76;20142;-63
2021/10/24 09:39:09;;;;;;;;;;;;;;;12.40;79.69;101831.77;1844594;78;20408;-62
2021/10/24 09:41:37;;;;;;;;;;;;;;;12.41;79.73;101821.13;1865531;76;20174;-62
2021/10/24 09:44:09;;;;;;;;;;;;;;;12.41;79.76;101819.81;1854733;76;20467;-63
2021/10/24 09:46:37;;;;;;;;;;;;;;;12.39;79.66;101824.27;1865559;76;20424;-62
2021/10/24 09:49:06;;;;;;;;;;;;;;;12.38;79.80;101828.31;1883642;76;20198;-62
2021/10/24 09:51:34;;;;;;;;;;;;;;;12.34;79.82;101829.70;1867026;76;20139;-62
2021/10/24 09:54:03;;;;;;;;;;;;;;;12.32;79.78;101823.61;1850420;78;20134;-63
2021/10/24 09:56:31;;;;;;;;;;;;;;;12.31;79.82;101823.19;1866614;76;20123;-65
2021/10/24 09:58:59;;;;;;;;;;;;;;;12.40;79.75;101829.13;1883554;76;20249;-66
2021/10/24 10:01:28;;;;;;;;;;;;;;;12.43;79.73;101838.26;1870398;76;20185;-67
2021/10/24 10:03:57;;;;;;;;;;;;;;;12.49;79.67;101847.34;1850410;78;20138;-67
2021/10/24 10:06:26;;;;;;;;;;;;;;;12.50;79.53;101851.70;1862829;75;20145;-66
2021/10/24 10:08:54;;;;;;;;;;;;;;;12.52;79.55;101851.20;1873826;77;20197;-65
2021/10/24 10:11:30;;;;;;;;;;;;;;;12.52;79.94;101852.52;1873873;76;20149;-66
2021/10/24 10:13:59;;;;;;;;;;;;;;;12.49;79.86;101853.95;1873821;77;20133;-65
2021/10/24 10:16:35;;;;;;;;;;;;;;;12.45;79.99;101858.89;1874093;75;20168;-66
2021/10/24 10:19:04;;;;;;;;;;;;;;;12.46;80.00;101865.91;1873937;75;20141;-65
2021/10/24 10:21:34;;;;;;;;;;;;;;;12.38;80.06;101871.89;1873778;77;20129;-65
2021/10/24 10:24:03;;;;;;;;;;;;;;;12.31;80.01;101865.91;1873760;77;20474;-65
2021/10/24 10:26:32;;;;;;;;;;;;;;;12.19;79.78;101867.13;1873546;75;20168;-65
2021/10/24 10:29:01;;;;;;;;;;;;;;;12.02;79.81;101868.88;1873901;77;20145;-64
2021/10/24 10:31:29;;;;;;;;;;;;;;;11.92;79.92;101878.83;1873795;77;20145;-65
2021/10/24 10:34:01;;;;;;;;;;;;;;;11.91;80.00;101870.48;1873244;76;20145;-65
2021/10/24 10:36:50;;;;;;;;;;;;;;;11.86;79.91;101859.17;1886971;75;20126;-63
2021/10/24 10:39:35;;;;;;;;;;;;;;;11.82;79.84;101860.14;1906490;75;20139;-64
2021/10/24 10:42:07;;;;;;;;;;;;;;;11.74;79.71;101855.53;1905986;75;20135;-63
2021/10/24 10:44:39;;;;;;;;;;;;;;;11.73;79.81;101857.73;1904567;75;20135;-64
2021/10/24 10:47:05;;;;;;;;;;;;;;;11.68;79.69;101850.42;1908363;74;20217;-68
2021/10/24 10:49:33;;;;;;;;;;;;;;;11.67;79.66;101851.31;1886229;75;20169;-68
2021/10/24 10:52:18;;;;;;;;;;;;;;;11.64;79.73;101855.34;1907836;75;20139;-67
2021/10/24 10:54:55;;;;;;;;;;;;;;;11.62;79.68;101856.72;1873318;77;20149;-66
2021/10/24 10:57:29;;;;;;;;;;;;;;;11.58;79.74;101849.34;1898564;75;20143;-66
2021/10/24 10:59:58;;;;;;;;;;;;;;;11.59;79.73;101852.38;1907847;75;20173;-66
2021/10/24 11:02:27;;;;;;;;;;;;;;;11.63;79.77;101854.94;1907792;75;20459;-65
2021/10/24 11:04:57;;;;;;;;;;;;;;;11.57;79.68;101850.69;1907746;75;20172;-67
2021/10/24 11:07:32;;;;;;;;;;;;;;;11.55;79.75;101854.68;1907754;75;20178;-68
2021/10/24 11:10:00;;;;;;;;;;;;;;;11.59;79.74;101860.75;1901895;75;20169;-67
2021/10/24 11:12:35;;;;;;;;;;;;;;;11.56;79.92;101870.94;1907797;75;20143;-65
2021/10/24 11:15:14;;;;;;;;;;;;;;;11.55;80.06;101881.52;1907635;75;20143;-62
2021/10/24 11:17:43;;;;;;;;;;;;;;;11.55;80.28;101885.02;1907796;75;20143;-62
2021/10/24 11:20:18;;;;;;;;;;;;;;;11.57;80.26;101888.94;1907697;75;20503;-62
2021/10/24 11:23:00;;;;;;;;;;;;;;;11.70;80.34;101881.58;1907801;75;20143;-64
2021/10/24 11:25:29;;;;;;;;;;;;;;;11.64;79.86;101893.59;1907747;75;20239;-65
2021/10/24 11:27:58;;;;;;;;;;;;;;;11.47;79.99;101888.31;1907790;75;20143;-62
2021/10/24 11:30:26;;;;;;;;;;;;;;;11.42;79.37;101894.14;1907979;75;20377;-62
2021/10/24 11:32:55;;;;;;;;;;;;;;;11.44;79.47;101899.38;1907780;75;20178;-62
2021/10/24 11:35:24;;;;;;;;;;;;;;;11.31;79.60;101909.35;1907815;75;20131;-62
2021/10/24 11:37:54;;;;;;;;;;;;;;;11.35;79.76;101914.50;1907774;75;20426;-62
2021/10/24 11:40:32;;;;;;;;;;;;;;;11.48;79.76;101917.72;1907846;75;20428;-62
2021/10/24 11:43:02;;;;;;;;;;;;;;;11.52;79.55;101922.01;1907763;74;20135;-62
2021/10/24 11:45:31;;;;;;;;;;;;;;;11.38;79.42;101928.95;1907788;75;20208;-62
2021/10/24 11:48:12;;;;;;;;;;;;;;;11.32;79.55;101940.08;1914269;75;20423;-63
2021/10/24 11:50:51;;;;;;;;;;;;;;;11.31;79.70;101944.49;1911679;75;20115;-62
2021/10/24 11:53:35;;;;;;;;;;;;;;;11.19;79.24;101941.69;1873743;77;20133;-63
2021/10/24 11:56:05;;;;;;;;;;;;;;;11.05;79.48;101949.45;1873778;77;20396;-62
2021/10/24 12:01:26;;;;;;;;;;;;;;;10.91;79.74;101958.53;1873796;76;20142;-62
2021/10/24 12:03:55;;;;;;;;;;;;;;;10.85;79.81;101963.94;1873227;75;20137;-62
2021/10/24 12:06:27;;;;;;;;;;;;;;;10.96;79.63;101967.67;1872705;76;20171;-65
2021/10/24 12:08:56;;;;;;;;;;;;;;;10.94;79.51;101978.70;1849449;76;20197;-65
2021/10/24 12:11:43;;;;;;;;;;;;;;;10.86;79.49;101983.25;1851553;76;20131;-65
2021/10/24 12:14:12;;;;;;;;;;;;;;;10.73;79.37;101981.30;1850230;78;20181;-65
2021/10/24 12:16:41;;;;;;;;;;;;;;;10.65;79.48;101991.14;1865203;76;20226;-65
2021/10/24 12:19:15;;;;;;;;;;;;;;;10.61;79.49;101996.91;1850330;78;20416;-64
2021/10/24 12:21:56;;;;;;;;;;;;;;;10.38;79.02;101994.69;1866928;76;20131;-64
2021/10/24 12:24:25;;;;;;;;;;;;;;;10.24;79.43;102001.50;1883662;76;20414;-64
2021/10/24 12:27:06;;;;;;;;;;;;;;;10.19;79.56;102008.14;1864548;76;20150;-65
2021/10/24 12:29:35;;;;;;;;;;;;;;;10.15;79.40;102013.51;1850286;78;20428;-65
2021/10/24 12:32:10;;;;;;;;;;;;;;;10.15;79.54;102009.56;1871321;76;20414;-65
2021/10/24 12:34:39;;;;;;;;;;;;;;;10.20;79.21;102007.72;1883458;76;20140;-64
2021/10/24 12:37:16;;;;;;;;;;;;;;;10.37;78.77;102005.68;1861552;76;20142;-67
2021/10/24 12:39:49;;;;;;;;;;;;;;;10.40;78.37;102010.91;1850574;78;20384;-65
2021/10/24 12:42:21;;;;;;;;;;;;;;;10.55;78.11;102017.65;1815388;78;20173;-65
2021/10/24 12:44:49;;;;;;;;;;;;;;;10.57;77.51;102021.13;1850365;76;20134;-65
2021/10/24 12:47:17;;;;;;;;;;;;;;;10.53;77.94;102028.66;1850486;77;20182;-65
2021/10/24 12:49:55;;;;;;;;;;;;;;;10.65;78.03;102030.19;1850286;77;20146;-66
2021/10/24 12:52:23;;;;;;;;;;;;;;;10.56;77.97;102030.36;1850367;78;20413;-65
2021/10/24 12:54:59;;;;;;;;;;;;;;;10.70;77.80;102030.98;1850335;78;20184;-64
2021/10/24 12:57:27;;;;;;;;;;;;;;;10.82;77.66;102025.45;1850320;78;20228;-65